sensor_id;sensor_type;location;lat;lon;timestamp;temperature;humidity
19588;DHT22;9940;47.252;8.696;2023-04-25T00:01:01;12.10;75.50
19588;DHT22;9940;47.252;8.696;2023-04-25T00:03:29;12.10;75.30
19588;DHT22;9940;47.252;8.696;2023-04-25T00:05:56;12.10;74.90
19588;DHT22;9940;47.252;8.696;2023-04-25T00:08:22;12.00;74.80
19588;DHT22;9940;47.252;8.696;2023-04-25T00:10:48;12.00;75.00
19588;DHT22;9940;47.252;8.696;2023-04-25T00:13:14;12.00;74.80
19588;DHT22;9940;47.252;8.696;2023-04-25T00:15:42;12.00;74.40
19588;DHT22;9940;47.252;8.696;2023-04-25T00:18:10;12.00;74.00
19588;DHT22;9940;47.252;8.696;2023-04-25T00:20:38;12.00;73.50
19588;DHT22;9940;47.252;8.696;2023-04-25T00:23:05;12.00;73.30
19588;DHT22;9940;47.252;8.696;2023-04-25T00:25:31;11.90;73.10
19588;DHT22;9940;47.252;8.696;2023-04-25T00:27:56;11.90;72.90
19588;DHT22;9940;47.252;8.696;2023-04-25T00:30:22;11.90;73.00
19588;DHT22;9940;47.252;8.696;2023-04-25T00:32:47;11.90;72.90
19588;DHT22;9940;47.252;8.696;2023-04-25T00:35:14;11.90;72.80
19588;DHT22;9940;47.252;8.696;2023-04-25T00:37:42;11.90;73.00
19588;DHT22;9940;47.252;8.696;2023-04-25T00:40:08;11.90;73.10
19588;DHT22;9940;47.252;8.696;2023-04-25T00:42:35;11.90;73.20
19588;DHT22;9940;47.252;8.696;2023-04-25T00:45:01;11.90;73.40
19588;DHT22;9940;47.252;8.696;2023-04-25T00:47:28;11.90;73.40
19588;DHT22;9940;47.252;8.696;2023-04-25T00:49:54;11.90;73.70
19588;DHT22;9940;47.252;8.696;2023-04-25T00:52:19;11.90;74.00
19588;DHT22;9940;47.252;8.696;2023-04-25T00:54:45;11.90;74.40
19588;DHT22;9940;47.252;8.696;2023-04-25T00:57:13;11.90;74.70
19588;DHT22;9940;47.252;8.696;2023-04-25T00:59:45;11.90;74.90
19588;DHT22;9940;47.252;8.696;2023-04-25T01:02:12;11.90;74.90
19588;DHT22;9940;47.252;8.696;2023-04-25T01:04:38;11.90;74.50
19588;DHT22;9940;47.252;8.696;2023-04-25T01:07:04;11.80;74.10
19588;DHT22;9940;47.252;8.696;2023-04-25T01:09:30;11.80;73.70
19588;DHT22;9940;47.252;8.696;2023-04-25T01:11:57;11.80;73.30
19588;DHT22;9940;47.252;8.696;2023-04-25T01:14:23;11.80;72.80
19588;DHT22;9940;47.252;8.696;2023-04-25T01:16:53;11.80;72.30
19588;DHT22;9940;47.252;8.696;2023-04-25T01:19:19;11.80;71.80
19588;DHT22;9940;47.252;8.696;2023-04-25T01:21:48;11.80;71.40
19588;DHT22;9940;47.252;8.696;2023-04-25T01:24:16;11.80;71.00
19588;DHT22;9940;47.252;8.696;2023-04-25T01:26:43;11.80;70.50
19588;DHT22;9940;47.252;8.696;2023-04-25T01:29:21;11.80;70.10
19588;DHT22;9940;47.252;8.696;2023-04-25T01:31:49;11.80;69.80
19588;DHT22;9940;47.252;8.696;2023-04-25T01:34:16;11.80;69.70
19588;DHT22;9940;47.252;8.696;2023-04-25T01:36:46;11.80;69.90
19588;DHT22;9940;47.252;8.696;2023-04-25T01:39:12;11.70;69.80
19588;DHT22;9940;47.252;8.696;2023-04-25T01:41:43;11.70;69.60
19588;DHT22;9940;47.252;8.696;2023-04-25T01:44:11;11.70;69.60
19588;DHT22;9940;47.252;8.696;2023-04-25T01:46:37;11.70;69.60
19588;DHT22;9940;47.252;8.696;2023-04-25T01:49:02;11.70;69.60
19588;DHT22;9940;47.252;8.696;2023-04-25T01:51:30;11.60;69.50
19588;DHT22;9940;47.252;8.696;2023-04-25T01:53:57;11.60;69.40
19588;DHT22;9940;47.252;8.696;2023-04-25T01:56:23;11.60;69.50
19588;DHT22;9940;47.252;8.696;2023-04-25T01:58:48;11.60;69.60
19588;DHT22;9940;47.252;8.696;2023-04-25T02:01:14;11.60;69.50
19588;DHT22;9940;47.252;8.696;2023-04-25T02:03:42;11.60;69.60
19588;DHT22;9940;47.252;8.696;2023-04-25T02:06:08;11.50;69.60
19588;DHT22;9940;47.252;8.696;2023-04-25T02:08:36;11.50;69.80
19588;DHT22;9940;47.252;8.696;2023-04-25T02:11:05;11.50;70.00
19588;DHT22;9940;47.252;8.696;2023-04-25T02:13:30;11.50;70.10
19588;DHT22;9940;47.252;8.696;2023-04-25T02:15:58;11.50;70.20
19588;DHT22;9940;47.252;8.696;2023-04-25T02:18:24;11.50;70.30
19588;DHT22;9940;47.252;8.696;2023-04-25T02:20:51;11.40;70.40
19588;DHT22;9940;47.252;8.696;2023-04-25T02:23:17;11.40;70.60
19588;DHT22;9940;47.252;8.696;2023-04-25T02:25:44;11.40;70.80
19588;DHT22;9940;47.252;8.696;2023-04-25T02:28:12;11.40;70.90
19588;DHT22;9940;47.252;8.696;2023-04-25T02:30:38;11.40;71.10
19588;DHT22;9940;47.252;8.696;2023-04-25T02:33:03;11.40;71.30
19588;DHT22;9940;47.252;8.696;2023-04-25T02:35:29;11.40;71.20
19588;DHT22;9940;47.252;8.696;2023-04-25T02:37:55;11.40;71.10
19588;DHT22;9940;47.252;8.696;2023-04-25T02:40:20;11.30;71.20
19588;DHT22;9940;47.252;8.696;2023-04-25T02:42:46;11.30;71.60
19588;DHT22;9940;47.252;8.696;2023-04-25T02:45:14;11.30;72.00
19588;DHT22;9940;47.252;8.696;2023-04-25T02:47:40;11.30;73.00
19588;DHT22;9940;47.252;8.696;2023-04-25T02:50:08;11.30;72.60
19588;DHT22;9940;47.252;8.696;2023-04-25T02:52:33;11.40;72.70
19588;DHT22;9940;47.252;8.696;2023-04-25T02:54:59;11.40;72.60
19588;DHT22;9940;47.252;8.696;2023-04-25T02:57:27;11.40;72.50
19588;DHT22;9940;47.252;8.696;2023-04-25T02:59:52;11.40;72.40
19588;DHT22;9940;47.252;8.696;2023-04-25T03:02:18;11.40;72.40
19588;DHT22;9940;47.252;8.696;2023-04-25T03:04:46;11.40;72.50
19588;DHT22;9940;47.252;8.696;2023-04-25T03:07:14;11.40;72.50
19588;DHT22;9940;47.252;8.696;2023-04-25T03:09:39;11.50;72.60
19588;DHT22;9940;47.252;8.696;2023-04-25T03:12:05;11.50;72.60
19588;DHT22;9940;47.252;8.696;2023-04-25T03:14:31;11.50;72.50
19588;DHT22;9940;47.252;8.696;2023-04-25T03:16:56;11.50;72.40
19588;DHT22;9940;47.252;8.696;2023-04-25T03:19:22;11.50;72.40
19588;DHT22;9940;47.252;8.696;2023-04-25T03:21:50;11.60;72.50
19588;DHT22;9940;47.252;8.696;2023-04-25T03:24:21;11.60;72.60
19588;DHT22;9940;47.252;8.696;2023-04-25T03:26:47;11.60;73.00
19588;DHT22;9940;47.252;8.696;2023-04-25T03:29:13;11.60;73.30
19588;DHT22;9940;47.252;8.696;2023-04-25T03:31:38;11.60;73.40
19588;DHT22;9940;47.252;8.696;2023-04-25T03:34:04;11.60;73.60
19588;DHT22;9940;47.252;8.696;2023-04-25T03:36:29;11.60;73.90
19588;DHT22;9940;47.252;8.696;2023-04-25T03:39:00;11.60;74.30
19588;DHT22;9940;47.252;8.696;2023-04-25T03:41:26;11.50;74.90
19588;DHT22;9940;47.252;8.696;2023-04-25T03:43:55;11.50;75.30
19588;DHT22;9940;47.252;8.696;2023-04-25T03:46:25;11.50;75.80
19588;DHT22;9940;47.252;8.696;2023-04-25T03:48:50;11.50;76.50
19588;DHT22;9940;47.252;8.696;2023-04-25T03:51:16;11.50;77.20
19588;DHT22;9940;47.252;8.696;2023-04-25T03:53:42;11.50;78.00
19588;DHT22;9940;47.252;8.696;2023-04-25T03:56:07;11.50;78.90
19588;DHT22;9940;47.252;8.696;2023-04-25T03:58:33;11.50;80.00
19588;DHT22;9940;47.252;8.696;2023-04-25T04:01:01;11.50;81.10
19588;DHT22;9940;47.252;8.696;2023-04-25T04:03:35;11.40;81.40
19588;DHT22;9940;47.252;8.696;2023-04-25T04:06:04;11.40;81.70
19588;DHT22;9940;47.252;8.696;2023-04-25T04:08:31;11.40;82.20
19588;DHT22;9940;47.252;8.696;2023-04-25T04:10:58;11.40;82.70
19588;DHT22;9940;47.252;8.696;2023-04-25T04:13:26;11.40;83.10
19588;DHT22;9940;47.252;8.696;2023-04-25T04:15:55;11.40;83.60
19588;DHT22;9940;47.252;8.696;2023-04-25T04:18:21;11.40;84.00
19588;DHT22;9940;47.252;8.696;2023-04-25T04:20:47;11.40;84.10
19588;DHT22;9940;47.252;8.696;2023-04-25T04:23:15;11.30;84.30
19588;DHT22;9940;47.252;8.696;2023-04-25T04:25:40;11.30;84.90
19588;DHT22;9940;47.252;8.696;2023-04-25T04:28:07;11.30;85.30
19588;DHT22;9940;47.252;8.696;2023-04-25T04:30:35;11.30;85.70
19588;DHT22;9940;47.252;8.696;2023-04-25T04:33:03;11.30;86.20
19588;DHT22;9940;47.252;8.696;2023-04-25T04:35:28;11.30;86.60
19588;DHT22;9940;47.252;8.696;2023-04-25T04:37:59;11.40;87.10
19588;DHT22;9940;47.252;8.696;2023-04-25T04:40:24;11.40;87.50
19588;DHT22;9940;47.252;8.696;2023-04-25T04:42:51;11.40;87.90
19588;DHT22;9940;47.252;8.696;2023-04-25T04:45:21;11.40;88.20
19588;DHT22;9940;47.252;8.696;2023-04-25T04:47:47;11.40;88.60
19588;DHT22;9940;47.252;8.696;2023-04-25T04:50:14;11.50;89.00
19588;DHT22;9940;47.252;8.696;2023-04-25T04:52:41;11.50;89.40
19588;DHT22;9940;47.252;8.696;2023-04-25T04:55:07;11.50;89.70
19588;DHT22;9940;47.252;8.696;2023-04-25T04:57:34;11.50;89.80
19588;DHT22;9940;47.252;8.696;2023-04-25T05:00:02;11.40;89.70
19588;DHT22;9940;47.252;8.696;2023-04-25T05:02:30;11.40;89.60
19588;DHT22;9940;47.252;8.696;2023-04-25T05:04:56;11.40;89.20
19588;DHT22;9940;47.252;8.696;2023-04-25T05:07:22;11.40;88.80
19588;DHT22;9940;47.252;8.696;2023-04-25T05:09:47;11.40;88.10
19588;DHT22;9940;47.252;8.696;2023-04-25T05:12:13;11.30;87.10
19588;DHT22;9940;47.252;8.696;2023-04-25T05:14:38;11.30;86.20
19588;DHT22;9940;47.252;8.696;2023-04-25T05:17:06;11.30;85.00
19588;DHT22;9940;47.252;8.696;2023-04-25T05:19:34;11.30;83.60
19588;DHT22;9940;47.252;8.696;2023-04-25T05:22:02;11.40;82.70
19588;DHT22;9940;47.252;8.696;2023-04-25T05:24:30;11.40;82.40
19588;DHT22;9940;47.252;8.696;2023-04-25T05:26:56;11.40;81.50
19588;DHT22;9940;47.252;8.696;2023-04-25T05:29:22;11.40;81.00
19588;DHT22;9940;47.252;8.696;2023-04-25T05:31:50;11.30;80.40
19588;DHT22;9940;47.252;8.696;2023-04-25T05:34:17;11.30;80.10
19588;DHT22;9940;47.252;8.696;2023-04-25T05:36:43;11.30;79.70
19588;DHT22;9940;47.252;8.696;2023-04-25T05:39:13;11.30;79.30
19588;DHT22;9940;47.252;8.696;2023-04-25T05:41:39;11.30;78.90
19588;DHT22;9940;47.252;8.696;2023-04-25T05:44:07;11.30;78.50
19588;DHT22;9940;47.252;8.696;2023-04-25T05:46:35;11.30;78.20
19588;DHT22;9940;47.252;8.696;2023-04-25T05:49:01;11.30;77.80
19588;DHT22;9940;47.252;8.696;2023-04-25T05:51:29;11.30;77.40
19588;DHT22;9940;47.252;8.696;2023-04-25T05:53:59;11.40;76.90
19588;DHT22;9940;47.252;8.696;2023-04-25T05:56:27;11.30;76.60
19588;DHT22;9940;47.252;8.696;2023-04-25T05:58:52;11.30;76.60
19588;DHT22;9940;47.252;8.696;2023-04-25T06:01:18;11.40;76.50
19588;DHT22;9940;47.252;8.696;2023-04-25T06:03:46;11.30;76.40
19588;DHT22;9940;47.252;8.696;2023-04-25T06:06:14;11.40;75.90
19588;DHT22;9940;47.252;8.696;2023-04-25T06:08:42;11.40;75.60
19588;DHT22;9940;47.252;8.696;2023-04-25T06:11:11;11.40;75.30
19588;DHT22;9940;47.252;8.696;2023-04-25T06:13:36;11.50;75.00
19588;DHT22;9940;47.252;8.696;2023-04-25T06:16:04;11.50;74.80
19588;DHT22;9940;47.252;8.696;2023-04-25T06:18:30;11.50;74.60
19588;DHT22;9940;47.252;8.696;2023-04-25T06:20:56;11.50;74.50
19588;DHT22;9940;47.252;8.696;2023-04-25T06:23:21;11.60;74.30
19588;DHT22;9940;47.252;8.696;2023-04-25T06:25:47;11.60;74.20
19588;DHT22;9940;47.252;8.696;2023-04-25T06:28:15;11.60;74.30
19588;DHT22;9940;47.252;8.696;2023-04-25T06:30:40;11.60;74.40
19588;DHT22;9940;47.252;8.696;2023-04-25T06:33:06;11.60;74.40
19588;DHT22;9940;47.252;8.696;2023-04-25T06:35:34;11.50;74.30
19588;DHT22;9940;47.252;8.696;2023-04-25T06:37:59;11.50;74.40
19588;DHT22;9940;47.252;8.696;2023-04-25T06:40:25;11.40;75.00
19588;DHT22;9940;47.252;8.696;2023-04-25T06:42:54;11.30;75.80
19588;DHT22;9940;47.252;8.696;2023-04-25T06:45:19;11.20;76.60
19588;DHT22;9940;47.252;8.696;2023-04-25T06:47:45;11.10;77.50
19588;DHT22;9940;47.252;8.696;2023-04-25T06:50:13;11.00;78.50
19588;DHT22;9940;47.252;8.696;2023-04-25T06:52:39;10.90;80.00
19588;DHT22;9940;47.252;8.696;2023-04-25T06:55:05;10.70;81.70
19588;DHT22;9940;47.252;8.696;2023-04-25T06:57:31;10.50;84.00
19588;DHT22;9940;47.252;8.696;2023-04-25T06:59:59;10.30;86.50
19588;DHT22;9940;47.252;8.696;2023-04-25T07:02:33;10.10;89.70
19588;DHT22;9940;47.252;8.696;2023-04-25T07:05:02;9.90;91.10
19588;DHT22;9940;47.252;8.696;2023-04-25T07:07:29;9.80;92.10
19588;DHT22;9940;47.252;8.696;2023-04-25T07:09:55;9.70;92.90
19588;DHT22;9940;47.252;8.696;2023-04-25T07:12:24;9.60;93.60
19588;DHT22;9940;47.252;8.696;2023-04-25T07:14:49;9.50;94.30
19588;DHT22;9940;47.252;8.696;2023-04-25T07:17:17;9.50;94.90
19588;DHT22;9940;47.252;8.696;2023-04-25T07:19:45;9.40;95.50
19588;DHT22;9940;47.252;8.696;2023-04-25T07:22:11;9.40;95.90
19588;DHT22;9940;47.252;8.696;2023-04-25T07:24:37;9.30;96.30
19588;DHT22;9940;47.252;8.696;2023-04-25T07:27:02;9.30;96.70
19588;DHT22;9940;47.252;8.696;2023-04-25T07:29:29;9.20;96.90
19588;DHT22;9940;47.252;8.696;2023-04-25T07:31:55;9.20;97.20
19588;DHT22;9940;47.252;8.696;2023-04-25T07:34:21;9.20;97.50
19588;DHT22;9940;47.252;8.696;2023-04-25T07:36:49;9.20;97.80
19588;DHT22;9940;47.252;8.696;2023-04-25T07:39:14;9.20;98.20
19588;DHT22;9940;47.252;8.696;2023-04-25T07:41:40;9.20;98.60
19588;DHT22;9940;47.252;8.696;2023-04-25T07:44:08;9.20;98.90
19588;DHT22;9940;47.252;8.696;2023-04-25T07:46:34;9.30;99.20
19588;DHT22;9940;47.252;8.696;2023-04-25T07:48:59;9.40;99.40
19588;DHT22;9940;47.252;8.696;2023-04-25T07:51:27;9.40;99.50
19588;DHT22;9940;47.252;8.696;2023-04-25T07:53:57;9.50;99.60
19588;DHT22;9940;47.252;8.696;2023-04-25T07:56:24;9.50;99.70
19588;DHT22;9940;47.252;8.696;2023-04-25T07:58:49;9.50;99.70
19588;DHT22;9940;47.252;8.696;2023-04-25T08:01:15;9.60;99.90
19588;DHT22;9940;47.252;8.696;2023-04-25T08:03:44;9.60;99.90
19588;DHT22;9940;47.252;8.696;2023-04-25T08:06:09;9.70;99.90
19588;DHT22;9940;47.252;8.696;2023-04-25T08:08:37;9.80;99.90
19588;DHT22;9940;47.252;8.696;2023-04-25T08:11:03;9.80;99.90
19588;DHT22;9940;47.252;8.696;2023-04-25T08:13:31;9.90;99.90
19588;DHT22;9940;47.252;8.696;2023-04-25T08:15:59;9.80;99.90
19588;DHT22;9940;47.252;8.696;2023-04-25T08:18:24;9.80;99.90
19588;DHT22;9940;47.252;8.696;2023-04-25T08:20:52;9.80;99.90
19588;DHT22;9940;47.252;8.696;2023-04-25T08:23:20;9.70;99.90
19588;DHT22;9940;47.252;8.696;2023-04-25T08:25:46;9.80;99.90
19588;DHT22;9940;47.252;8.696;2023-04-25T08:28:11;9.80;99.90
19588;DHT22;9940;47.252;8.696;2023-04-25T08:30:42;9.80;99.90
19588;DHT22;9940;47.252;8.696;2023-04-25T08:33:08;9.80;99.90
19588;DHT22;9940;47.252;8.696;2023-04-25T08:35:33;9.90;99.90
19588;DHT22;9940;47.252;8.696;2023-04-25T08:37:59;10.00;99.90
19588;DHT22;9940;47.252;8.696;2023-04-25T08:40:28;10.00;99.90
19588;DHT22;9940;47.252;8.696;2023-04-25T08:43:02;10.10;99.90
19588;DHT22;9940;47.252;8.696;2023-04-25T08:45:33;10.10;99.90
19588;DHT22;9940;47.252;8.696;2023-04-25T08:48:01;10.20;99.90
19588;DHT22;9940;47.252;8.696;2023-04-25T08:50:30;10.10;99.90
19588;DHT22;9940;47.252;8.696;2023-04-25T08:52:59;10.20;99.90
19588;DHT22;9940;47.252;8.696;2023-04-25T08:55:30;10.20;99.90
19588;DHT22;9940;47.252;8.696;2023-04-25T08:57:59;10.30;99.90
19588;DHT22;9940;47.252;8.696;2023-04-25T09:00:27;10.40;99.90
19588;DHT22;9940;47.252;8.696;2023-04-25T09:02:53;10.40;99.90
19588;DHT22;9940;47.252;8.696;2023-04-25T09:05:20;10.40;99.90
19588;DHT22;9940;47.252;8.696;2023-04-25T09:07:46;10.50;99.90
19588;DHT22;9940;47.252;8.696;2023-04-25T09:10:13;10.60;99.90
19588;DHT22;9940;47.252;8.696;2023-04-25T09:12:39;10.60;99.90
19588;DHT22;9940;47.252;8.696;2023-04-25T09:15:07;10.70;99.90
19588;DHT22;9940;47.252;8.696;2023-04-25T09:17:35;10.70;99.90
19588;DHT22;9940;47.252;8.696;2023-04-25T09:20:10;10.70;99.90
19588;DHT22;9940;47.252;8.696;2023-04-25T09:22:38;10.80;99.90
19588;DHT22;9940;47.252;8.696;2023-04-25T09:25:13;10.80;99.90
19588;DHT22;9940;47.252;8.696;2023-04-25T09:27:54;10.80;99.90
19588;DHT22;9940;47.252;8.696;2023-04-25T09:30:32;10.80;99.90
19588;DHT22;9940;47.252;8.696;2023-04-25T09:33:07;10.70;99.90
19588;DHT22;9940;47.252;8.696;2023-04-25T09:35:37;10.60;99.90
19588;DHT22;9940;47.252;8.696;2023-04-25T09:38:15;10.50;99.90
19588;DHT22;9940;47.252;8.696;2023-04-25T09:40:47;10.20;99.90
19588;DHT22;9940;47.252;8.696;2023-04-25T09:43:22;10.00;99.90
19588;DHT22;9940;47.252;8.696;2023-04-25T09:45:49;9.80;99.90
19588;DHT22;9940;47.252;8.696;2023-04-25T09:48:24;9.70;99.90
19588;DHT22;9940;47.252;8.696;2023-04-25T09:51:13;9.60;99.90
19588;DHT22;9940;47.252;8.696;2023-04-25T09:53:44;9.60;99.90
19588;DHT22;9940;47.252;8.696;2023-04-25T09:56:11;9.50;99.90
19588;DHT22;9940;47.252;8.696;2023-04-25T09:58:39;9.50;99.90
19588;DHT22;9940;47.252;8.696;2023-04-25T10:01:06;9.50;99.90
19588;DHT22;9940;47.252;8.696;2023-04-25T10:03:34;9.60;99.90
19588;DHT22;9940;47.252;8.696;2023-04-25T10:06:07;9.70;99.90
19588;DHT22;9940;47.252;8.696;2023-04-25T10:08:36;9.70;99.90
19588;DHT22;9940;47.252;8.696;2023-04-25T10:11:05;9.70;99.90
19588;DHT22;9940;47.252;8.696;2023-04-25T10:13:31;9.60;99.90
19588;DHT22;9940;47.252;8.696;2023-04-25T10:15:58;9.60;99.90
19588;DHT22;9940;47.252;8.696;2023-04-25T10:18:27;9.60;99.90
19588;DHT22;9940;47.252;8.696;2023-04-25T10:20:59;9.50;99.90
19588;DHT22;9940;47.252;8.696;2023-04-25T10:23:25;9.60;99.90
19588;DHT22;9940;47.252;8.696;2023-04-25T10:25:52;9.70;99.90
19588;DHT22;9940;47.252;8.696;2023-04-25T10:28:18;9.80;99.90
19588;DHT22;9940;47.252;8.696;2023-04-25T10:31:02;9.80;99.90
19588;DHT22;9940;47.252;8.696;2023-04-25T10:33:38;10.00;99.90
19588;DHT22;9940;47.252;8.696;2023-04-25T10:36:15;10.10;99.90
19588;DHT22;9940;47.252;8.696;2023-04-25T10:38:45;10.40;99.90
19588;DHT22;9940;47.252;8.696;2023-04-25T10:41:14;10.60;99.90
19588;DHT22;9940;47.252;8.696;2023-04-25T10:43:44;10.80;99.90
19588;DHT22;9940;47.252;8.696;2023-04-25T10:46:15;11.00;99.90
19588;DHT22;9940;47.252;8.696;2023-04-25T10:48:46;11.10;99.90
19588;DHT22;9940;47.252;8.696;2023-04-25T10:54:07;11.10;99.90
19588;DHT22;9940;47.252;8.696;2023-04-25T10:56:41;11.00;99.90
19588;DHT22;9940;47.252;8.696;2023-04-25T10:59:18;11.00;99.90
19588;DHT22;9940;47.252;8.696;2023-04-25T11:01:46;10.80;99.90
19588;DHT22;9940;47.252;8.696;2023-04-25T11:09:55;10.60;99.90
19588;DHT22;9940;47.252;8.696;2023-04-25T11:12:21;10.50;99.90
19588;DHT22;9940;47.252;8.696;2023-04-25T11:14:46;10.40;99.90
19588;DHT22;9940;47.252;8.696;2023-04-25T11:17:12;10.40;99.90
19588;DHT22;9940;47.252;8.696;2023-04-25T11:19:40;10.40;99.90
19588;DHT22;9940;47.252;8.696;2023-04-25T11:22:06;10.30;99.90
19588;DHT22;9940;47.252;8.696;2023-04-25T11:24:36;10.30;99.90
19588;DHT22;9940;47.252;8.696;2023-04-25T11:27:07;10.30;99.90
19588;DHT22;9940;47.252;8.696;2023-04-25T11:29:34;10.40;99.90
19588;DHT22;9940;47.252;8.696;2023-04-25T11:32:00;10.40;99.90
19588;DHT22;9940;47.252;8.696;2023-04-25T11:34:29;10.40;99.90
19588;DHT22;9940;47.252;8.696;2023-04-25T11:37:01;10.50;99.90
19588;DHT22;9940;47.252;8.696;2023-04-25T11:39:27;10.50;99.90
19588;DHT22;9940;47.252;8.696;2023-04-25T11:41:56;10.60;99.90
19588;DHT22;9940;47.252;8.696;2023-04-25T11:44:24;11.00;99.90
19588;DHT22;9940;47.252;8.696;2023-04-25T11:46:51;11.70;99.90
19588;DHT22;9940;47.252;8.696;2023-04-25T11:49:19;12.00;99.90
19588;DHT22;9940;47.252;8.696;2023-04-25T11:51:48;12.00;99.90
19588;DHT22;9940;47.252;8.696;2023-04-25T11:54:14;11.80;99.90
19588;DHT22;9940;47.252;8.696;2023-04-25T11:56:44;11.70;99.90
19588;DHT22;9940;47.252;8.696;2023-04-25T11:59:11;11.50;99.90
19588;DHT22;9940;47.252;8.696;2023-04-25T12:01:38;11.40;99.90
19588;DHT22;9940;47.252;8.696;2023-04-25T12:06:46;11.40;99.90
19588;DHT22;9940;47.252;8.696;2023-04-25T12:09:16;11.50;99.90
19588;DHT22;9940;47.252;8.696;2023-04-25T12:14:12;11.60;99.90
19588;DHT22;9940;47.252;8.696;2023-04-25T12:16:47;11.60;99.60
19588;DHT22;9940;47.252;8.696;2023-04-25T12:19:18;11.50;99.10
19588;DHT22;9940;47.252;8.696;2023-04-25T12:21:44;11.40;99.00
19588;DHT22;9940;47.252;8.696;2023-04-25T12:24:24;11.30;99.10
19588;DHT22;9940;47.252;8.696;2023-04-25T12:27:04;11.50;99.50
19588;DHT22;9940;47.252;8.696;2023-04-25T12:29:31;12.10;98.90
19588;DHT22;9940;47.252;8.696;2023-04-25T12:32:01;12.60;98.00
19588;DHT22;9940;47.252;8.696;2023-04-25T12:34:27;13.00;96.30
19588;DHT22;9940;47.252;8.696;2023-04-25T12:36:53;13.30;95.10
19588;DHT22;9940;47.252;8.696;2023-04-25T12:39:21;13.60;93.90
19588;DHT22;9940;47.252;8.696;2023-04-25T12:41:53;13.90;92.80
19588;DHT22;9940;47.252;8.696;2023-04-25T12:44:20;14.20;91.40
19588;DHT22;9940;47.252;8.696;2023-04-25T12:46:45;14.50;90.30
19588;DHT22;9940;47.252;8.696;2023-04-25T12:49:11;14.70;88.20
19588;DHT22;9940;47.252;8.696;2023-04-25T12:51:37;14.80;86.00
19588;DHT22;9940;47.252;8.696;2023-04-25T12:54:07;15.00;84.60
19588;DHT22;9940;47.252;8.696;2023-04-25T12:56:34;15.20;82.70
19588;DHT22;9940;47.252;8.696;2023-04-25T13:08:50;16.00;72.40
19588;DHT22;9940;47.252;8.696;2023-04-25T13:11:15;16.10;72.90
19588;DHT22;9940;47.252;8.696;2023-04-25T13:13:44;16.10;72.10
19588;DHT22;9940;47.252;8.696;2023-04-25T13:16:09;16.10;71.50
19588;DHT22;9940;47.252;8.696;2023-04-25T13:18:35;16.20;70.90
19588;DHT22;9940;47.252;8.696;2023-04-25T13:21:05;16.30;70.60
19588;DHT22;9940;47.252;8.696;2023-04-25T13:23:30;16.50;69.90
19588;DHT22;9940;47.252;8.696;2023-04-25T13:25:59;16.50;69.50
19588;DHT22;9940;47.252;8.696;2023-04-25T13:28:30;16.50;69.50
19588;DHT22;9940;47.252;8.696;2023-04-25T13:30:58;16.10;69.10
19588;DHT22;9940;47.252;8.696;2023-04-25T13:33:24;15.80;70.00
19588;DHT22;9940;47.252;8.696;2023-04-25T13:35:53;15.40;69.50
19588;DHT22;9940;47.252;8.696;2023-04-25T13:38:26;15.20;69.70
19588;DHT22;9940;47.252;8.696;2023-04-25T13:40:52;15.40;69.90
19588;DHT22;9940;47.252;8.696;2023-04-25T13:43:19;15.60;69.10
19588;DHT22;9940;47.252;8.696;2023-04-25T13:45:48;15.50;68.40
19588;DHT22;9940;47.252;8.696;2023-04-25T13:48:17;15.20;68.10
19588;DHT22;9940;47.252;8.696;2023-04-25T13:50:46;14.90;68.40
19588;DHT22;9940;47.252;8.696;2023-04-25T13:53:11;14.60;68.80
19588;DHT22;9940;47.252;8.696;2023-04-25T13:55:39;14.30;69.00
19588;DHT22;9940;47.252;8.696;2023-04-25T13:58:05;14.10;69.30
19588;DHT22;9940;47.252;8.696;2023-04-25T14:00:37;13.90;69.80
19588;DHT22;9940;47.252;8.696;2023-04-25T14:03:04;13.60;70.30
19588;DHT22;9940;47.252;8.696;2023-04-25T14:05:35;13.40;71.30
19588;DHT22;9940;47.252;8.696;2023-04-25T14:08:04;13.20;73.20
19588;DHT22;9940;47.252;8.696;2023-04-25T14:10:30;13.00;75.30
19588;DHT22;9940;47.252;8.696;2023-04-25T14:12:55;13.10;76.80
19588;DHT22;9940;47.252;8.696;2023-04-25T14:15:21;13.70;77.10
19588;DHT22;9940;47.252;8.696;2023-04-25T14:17:47;14.30;75.70
19588;DHT22;9940;47.252;8.696;2023-04-25T14:20:14;14.60;74.30
19588;DHT22;9940;47.252;8.696;2023-04-25T14:22:40;14.80;73.00
19588;DHT22;9940;47.252;8.696;2023-04-25T14:25:09;15.00;71.80
19588;DHT22;9940;47.252;8.696;2023-04-25T14:27:37;15.00;70.90
19588;DHT22;9940;47.252;8.696;2023-04-25T14:30:03;14.90;70.40
19588;DHT22;9940;47.252;8.696;2023-04-25T14:32:32;15.00;70.00
19588;DHT22;9940;47.252;8.696;2023-04-25T14:35:00;15.00;69.50
19588;DHT22;9940;47.252;8.696;2023-04-25T14:37:26;15.10;69.00
19588;DHT22;9940;47.252;8.696;2023-04-25T14:39:51;15.30;68.10
19588;DHT22;9940;47.252;8.696;2023-04-25T14:42:17;15.20;67.20
19588;DHT22;9940;47.252;8.696;2023-04-25T14:44:43;15.20;66.70
19588;DHT22;9940;47.252;8.696;2023-04-25T14:47:08;15.40;66.80
19588;DHT22;9940;47.252;8.696;2023-04-25T14:49:34;16.20;65.90
19588;DHT22;9940;47.252;8.696;2023-04-25T14:52:02;16.80;64.30
19588;DHT22;9940;47.252;8.696;2023-04-25T14:54:28;16.60;63.30
19588;DHT22;9940;47.252;8.696;2023-04-25T14:56:56;16.20;63.10
19588;DHT22;9940;47.252;8.696;2023-04-25T14:59:22;15.70;63.10
19588;DHT22;9940;47.252;8.696;2023-04-25T15:01:50;15.30;63.60
19588;DHT22;9940;47.252;8.696;2023-04-25T15:04:15;14.90;64.00
19588;DHT22;9940;47.252;8.696;2023-04-25T15:06:42;14.50;64.20
19588;DHT22;9940;47.252;8.696;2023-04-25T15:09:11;14.20;64.30
19588;DHT22;9940;47.252;8.696;2023-04-25T15:11:37;13.90;64.80
19588;DHT22;9940;47.252;8.696;2023-04-25T15:14:03;13.70;65.50
19588;DHT22;9940;47.252;8.696;2023-04-25T15:16:28;13.50;66.20
19588;DHT22;9940;47.252;8.696;2023-04-25T15:18:56;13.30;67.10
19588;DHT22;9940;47.252;8.696;2023-04-25T15:21:24;13.20;67.90
19588;DHT22;9940;47.252;8.696;2023-04-25T15:23:51;13.00;68.50
19588;DHT22;9940;47.252;8.696;2023-04-25T15:26:22;12.90;69.40
19588;DHT22;9940;47.252;8.696;2023-04-25T15:28:50;12.70;70.70
19588;DHT22;9940;47.252;8.696;2023-04-25T15:31:19;12.30;73.30
19588;DHT22;9940;47.252;8.696;2023-04-25T15:33:44;11.70;77.20
19588;DHT22;9940;47.252;8.696;2023-04-25T15:36:15;11.10;82.20
19588;DHT22;9940;47.252;8.696;2023-04-25T15:38:44;10.60;88.10
19588;DHT22;9940;47.252;8.696;2023-04-25T15:41:10;10.20;91.40
19588;DHT22;9940;47.252;8.696;2023-04-25T15:43:39;9.90;93.50
19588;DHT22;9940;47.252;8.696;2023-04-25T15:46:07;9.70;95.30
19588;DHT22;9940;47.252;8.696;2023-04-25T15:48:33;9.60;97.00
19588;DHT22;9940;47.252;8.696;2023-04-25T15:50:59;9.40;98.30
19588;DHT22;9940;47.252;8.696;2023-04-25T15:53:25;9.40;99.50
19588;DHT22;9940;47.252;8.696;2023-04-25T15:55:51;9.30;99.90
19588;DHT22;9940;47.252;8.696;2023-04-25T15:58:20;9.20;99.90
19588;DHT22;9940;47.252;8.696;2023-04-25T16:00:48;9.30;99.90
19588;DHT22;9940;47.252;8.696;2023-04-25T16:03:14;9.40;99.90
19588;DHT22;9940;47.252;8.696;2023-04-25T16:05:42;9.50;99.90
19588;DHT22;9940;47.252;8.696;2023-04-25T16:08:08;9.70;99.90
19588;DHT22;9940;47.252;8.696;2023-04-25T16:10:38;9.80;99.90
19588;DHT22;9940;47.252;8.696;2023-04-25T16:13:03;9.90;99.90
19588;DHT22;9940;47.252;8.696;2023-04-25T16:15:29;10.10;99.90